sensor_id;sensor_type;location;lat;lon;timestamp;pressure;altitude;pressure_sealevel;temperature;humidity
79415;BME280;68864;44.972;19.612;2023-04-06T00:00:10;100876.75;;;5.60;57.19
79415;BME280;68864;44.972;19.612;2023-04-06T00:02:37;100879.22;;;5.62;57.05
79415;BME280;68864;44.972;19.612;2023-04-06T00:05:05;100872.72;;;5.57;57.39
79415;BME280;68864;44.972;19.612;2023-04-06T00:07:33;100870.59;;;5.54;57.39
79415;BME280;68864;44.972;19.612;2023-04-06T00:10:00;100868.31;;;5.56;58.13
79415;BME280;68864;44.972;19.612;2023-04-06T00:12:27;100868.94;;;5.53;57.70
79415;BME280;68864;44.972;19.612;2023-04-06T00:14:54;100869.13;;;5.57;57.75
79415;BME280;68864;44.972;19.612;2023-04-06T00:17:22;100874.66;;;5.57;57.80
79415;BME280;68864;44.972;19.612;2023-04-06T00:19:49;100864.25;;;5.54;57.92
79415;BME280;68864;44.972;19.612;2023-04-06T00:22:16;100870.59;;;5.54;57.23
79415;BME280;68864;44.972;19.612;2023-04-06T00:24:42;100866.69;;;5.55;57.29
79415;BME280;68864;44.972;19.612;2023-04-06T00:27:09;100862.78;;;5.56;57.57
79415;BME280;68864;44.972;19.612;2023-04-06T00:29:36;100862.78;;;5.56;57.44
79415;BME280;68864;44.972;19.612;2023-04-06T00:32:04;100866.19;;;5.53;57.41
79415;BME280;68864;44.972;19.612;2023-04-06T00:34:32;100864.25;;;5.54;57.88
79415;BME280;68864;44.972;19.612;2023-04-06T00:36:59;100861.78;;;5.52;58.14
79415;BME280;68864;44.972;19.612;2023-04-06T00:39:26;100854.31;;;5.53;59.00
79415;BME280;68864;44.972;19.612;2023-04-06T00:41:53;100866.34;;;5.48;58.50
79415;BME280;68864;44.972;19.612;2023-04-06T00:44:21;100857.56;;;5.46;58.35
79415;BME280;68864;44.972;19.612;2023-04-06T00:46:48;100852.03;;;5.46;58.83
79415;BME280;68864;44.972;19.612;2023-04-06T00:49:15;100843.72;;;5.46;58.04
79415;BME280;68864;44.972;19.612;2023-04-06T00:51:43;100851.56;;;5.44;58.71
79415;BME280;68864;44.972;19.612;2023-04-06T00:54:10;100849.59;;;5.45;58.51
79415;BME280;68864;44.972;19.612;2023-04-06T00:56:37;100849.59;;;5.45;58.04
79415;BME280;68864;44.972;19.612;2023-04-06T00:59:04;100848.78;;;5.44;59.02
79415;BME280;68864;44.972;19.612;2023-04-06T01:04:04;100849.91;;;5.43;58.82
79415;BME280;68864;44.972;19.612;2023-04-06T01:06:31;100850.25;;;5.42;58.34
79415;BME280;68864;44.972;19.612;2023-04-06T01:08:59;100854.44;;;5.39;58.62
79415;BME280;68864;44.972;19.612;2023-04-06T01:11:26;100836.06;;;5.35;58.56
79415;BME280;68864;44.972;19.612;2023-04-06T01:13:53;100840.78;;;5.34;58.75
79415;BME280;68864;44.972;19.612;2023-04-06T01:16:20;100835.41;;;5.29;58.95
79415;BME280;68864;44.972;19.612;2023-04-06T01:18:47;100830.03;;;5.15;58.47
79415;BME280;68864;44.972;19.612;2023-04-06T01:21:14;100832.16;;;5.18;59.45
79415;BME280;68864;44.972;19.612;2023-04-06T01:23:44;100776.94;;;4.79;58.75
79415;BME280;68864;44.972;19.612;2023-04-06T01:26:11;100838.59;;;5.05;59.65
79415;BME280;68864;44.972;19.612;2023-04-06T01:28:38;100825.41;;;4.94;59.58
79415;BME280;68864;44.972;19.612;2023-04-06T01:31:07;100781.63;;;4.70;60.30
79415;BME280;68864;44.972;19.612;2023-04-06T01:33:34;100830.66;;;5.04;60.57
79415;BME280;68864;44.972;19.612;2023-04-06T01:36:00;100775.09;;;4.66;60.10
79415;BME280;68864;44.972;19.612;2023-04-06T01:38:27;100835.28;;;4.86;61.17
79415;BME280;68864;44.972;19.612;2023-04-06T01:40:55;100769.53;;;4.49;61.55
79415;BME280;68864;44.972;19.612;2023-04-06T01:43:22;100825.38;;;4.85;61.11
79415;BME280;68864;44.972;19.612;2023-04-06T01:45:49;100824.72;;;4.88;60.90
79415;BME280;68864;44.972;19.612;2023-04-06T01:48:16;100818.22;;;4.84;61.23
79415;BME280;68864;44.972;19.612;2023-04-06T01:50:43;100824.22;;;4.86;61.26
79415;BME280;68864;44.972;19.612;2023-04-06T01:53:10;100764.50;;;4.51;61.52
79415;BME280;68864;44.972;19.612;2023-04-06T01:55:37;100818.69;;;4.86;61.31
79415;BME280;68864;44.972;19.612;2023-04-06T01:58:05;100808.00;;;4.85;61.56
79415;BME280;68864;44.972;19.612;2023-04-06T02:00:32;100810.41;;;4.86;61.08
79415;BME280;68864;44.972;19.612;2023-04-06T02:02:59;100800.69;;;4.89;61.65
79415;BME280;68864;44.972;19.612;2023-04-06T02:05:26;100810.78;;;4.93;60.80
79415;BME280;68864;44.972;19.612;2023-04-06T02:07:53;100806.56;;;4.96;61.36
79415;BME280;68864;44.972;19.612;2023-04-06T02:10:20;100789.97;;;4.87;61.61
79415;BME280;68864;44.972;19.612;2023-04-06T02:12:46;100792.75;;;4.96;61.17
79415;BME280;68864;44.972;19.612;2023-04-06T02:15:15;100791.94;;;4.95;60.58
79415;BME280;68864;44.972;19.612;2023-04-06T02:17:42;100779.22;;;4.86;60.64
79415;BME280;68864;44.972;19.612;2023-04-06T02:20:09;100797.63;;;4.99;60.88
79415;BME280;68864;44.972;19.612;2023-04-06T02:22:36;100768.34;;;4.80;60.57
79415;BME280;68864;44.972;19.612;2023-04-06T02:25:04;100754.53;;;4.72;60.81
79415;BME280;68864;44.972;19.612;2023-04-06T02:27:30;100801.19;;;4.91;62.22
79415;BME280;68864;44.972;19.612;2023-04-06T02:29:57;100804.44;;;4.93;61.31
79415;BME280;68864;44.972;19.612;2023-04-06T02:32:25;100803.81;;;4.96;61.26
79415;BME280;68864;44.972;19.612;2023-04-06T02:34:52;100790.50;;;4.98;60.62
79415;BME280;68864;44.972;19.612;2023-04-06T02:37:19;100798.44;;;4.99;60.86
79415;BME280;68864;44.972;19.612;2023-04-06T02:39:46;100798.44;;;4.99;60.84
79415;BME280;68864;44.972;19.612;2023-04-06T02:42:13;100769.34;;;4.85;60.61
79415;BME280;68864;44.972;19.612;2023-04-06T02:44:40;100788.50;;;4.90;60.66
79415;BME280;68864;44.972;19.612;2023-04-06T02:47:08;100791.94;;;4.95;60.69
79415;BME280;68864;44.972;19.612;2023-04-06T02:49:36;100776.00;;;4.92;60.72
79415;BME280;68864;44.972;19.612;2023-04-06T02:52:03;100783.19;;;5.02;61.15
79415;BME280;68864;44.972;19.612;2023-04-06T02:54:30;100738.13;;;4.75;60.77
79415;BME280;68864;44.972;19.612;2023-04-06T02:56:56;100780.53;;;4.88;61.64
79415;BME280;68864;44.972;19.612;2023-04-06T02:59:23;100786.56;;;4.90;61.35
79415;BME280;68864;44.972;19.612;2023-04-06T03:01:51;100777.28;;;4.86;60.68
79415;BME280;68864;44.972;19.612;2023-04-06T03:04:17;100736.44;;;4.57;61.48
79415;BME280;68864;44.972;19.612;2023-04-06T03:06:46;100785.25;;;4.88;60.78
79415;BME280;68864;44.972;19.612;2023-04-06T03:09:12;100781.50;;;4.84;61.43
79415;BME280;68864;44.972;19.612;2023-04-06T03:11:40;100797.28;;;4.83;60.69
79415;BME280;68864;44.972;19.612;2023-04-06T03:14:07;100799.16;;;4.74;62.08
79415;BME280;68864;44.972;19.612;2023-04-06T03:16:33;100782.28;;;4.75;61.72
79415;BME280;68864;44.972;19.612;2023-04-06T03:19:00;100794.97;;;4.76;61.37
79415;BME280;68864;44.972;19.612;2023-04-06T03:21:27;100807.66;;;4.77;62.00
79415;BME280;68864;44.972;19.612;2023-04-06T03:23:56;100800.81;;;4.75;62.21
79415;BME280;68864;44.972;19.612;2023-04-06T03:26:22;100729.03;;;4.35;61.87
79415;BME280;68864;44.972;19.612;2023-04-06T03:28:49;100792.22;;;4.76;62.29
79415;BME280;68864;44.972;19.612;2023-04-06T03:31:16;100784.38;;;4.70;61.18
79415;BME280;68864;44.972;19.612;2023-04-06T03:33:43;100793.03;;;4.77;60.83
79415;BME280;68864;44.972;19.612;2023-04-06T03:36:10;100790.06;;;4.73;61.48
79415;BME280;68864;44.972;19.612;2023-04-06T03:38:37;100778.06;;;4.69;61.78
79415;BME280;68864;44.972;19.612;2023-04-06T03:41:05;100799.47;;;4.72;61.35
79415;BME280;68864;44.972;19.612;2023-04-06T03:43:32;100746.91;;;4.38;62.18
79415;BME280;68864;44.972;19.612;2023-04-06T03:45:59;100790.53;;;4.67;61.96
79415;BME280;68864;44.972;19.612;2023-04-06T03:48:25;100789.69;;;4.58;61.79
79415;BME280;68864;44.972;19.612;2023-04-06T03:50:52;100798.34;;;4.65;61.73
79415;BME280;68864;44.972;19.612;2023-04-06T03:53:19;100792.28;;;4.54;61.78
79415;BME280;68864;44.972;19.612;2023-04-06T03:55:46;100806.34;;;4.44;61.97
79415;BME280;68864;44.972;19.612;2023-04-06T03:58:14;100801.28;;;4.37;61.79
79415;BME280;68864;44.972;19.612;2023-04-06T04:00:41;100802.88;;;4.30;61.97
79415;BME280;68864;44.972;19.612;2023-04-06T04:03:08;100796.00;;;4.19;62.88
79415;BME280;68864;44.972;19.612;2023-04-06T04:05:34;100739.16;;;3.87;62.69
79415;BME280;68864;44.972;19.612;2023-04-06T04:08:01;100803.47;;;4.27;63.18
79415;BME280;68864;44.972;19.612;2023-04-06T04:10:28;100796.03;;;4.27;62.28
79415;BME280;68864;44.972;19.612;2023-04-06T04:12:55;100806.38;;;4.22;63.02
79415;BME280;68864;44.972;19.612;2023-04-06T04:15:23;100778.34;;;3.97;63.30
79415;BME280;68864;44.972;19.612;2023-04-06T04:17:50;100800.31;;;4.11;63.56
79415;BME280;68864;44.972;19.612;2023-04-06T04:20:17;100791.72;;;4.13;63.53
79415;BME280;68864;44.972;19.612;2023-04-06T04:22:44;100798.69;;;4.10;63.26
79415;BME280;68864;44.972;19.612;2023-04-06T04:25:10;100808.03;;;4.00;63.25
79415;BME280;68864;44.972;19.612;2023-04-06T04:27:37;100792.22;;;3.92;63.38
79415;BME280;68864;44.972;19.612;2023-04-06T04:30:05;100803.47;;;3.96;63.72
79415;BME280;68864;44.972;19.612;2023-04-06T04:32:34;100810.59;;;3.97;63.60
79415;BME280;68864;44.972;19.612;2023-04-06T04:35:01;100756.22;;;3.67;63.43
79415;BME280;68864;44.972;19.612;2023-04-06T04:37:28;100816.28;;;4.00;63.39
79415;BME280;68864;44.972;19.612;2023-04-06T04:39:55;100793.56;;;3.95;63.51
79415;BME280;68864;44.972;19.612;2023-04-06T04:42:22;100800.63;;;4.10;63.52
79415;BME280;68864;44.972;19.612;2023-04-06T04:44:48;100814.13;;;4.11;63.87
79415;BME280;68864;44.972;19.612;2023-04-06T04:47:15;100803.09;;;4.11;62.69
79415;BME280;68864;44.972;19.612;2023-04-06T04:49:43;100766.13;;;3.90;63.10
79415;BME280;68864;44.972;19.612;2023-04-06T04:52:10;100803.91;;;4.12;63.52
79415;BME280;68864;44.972;19.612;2023-04-06T04:54:37;100819.44;;;4.08;63.83
79415;BME280;68864;44.972;19.612;2023-04-06T04:57:06;100766.69;;;3.78;62.75
79415;BME280;68864;44.972;19.612;2023-04-06T04:59:34;100802.25;;;3.88;64.28
79415;BME280;68864;44.972;19.612;2023-04-06T05:02:01;100805.59;;;3.77;63.77
79415;BME280;68864;44.972;19.612;2023-04-06T05:04:28;100815.53;;;3.86;63.65
79415;BME280;68864;44.972;19.612;2023-04-06T05:07:04;100815.53;;;3.86;63.63
79415;BME280;68864;44.972;19.612;2023-04-06T05:09:31;100764.88;;;3.51;63.46
79415;BME280;68864;44.972;19.612;2023-04-06T05:11:58;100815.06;;;3.84;63.63
79415;BME280;68864;44.972;19.612;2023-04-06T05:14:25;100816.56;;;3.90;64.00
79415;BME280;68864;44.972;19.612;2023-04-06T05:16:52;100803.81;;;3.81;64.12
79415;BME280;68864;44.972;19.612;2023-04-06T05:19:19;100769.81;;;3.63;64.04
79415;BME280;68864;44.972;19.612;2023-04-06T05:21:46;100754.78;;;3.69;63.38
79415;BME280;68864;44.972;19.612;2023-04-06T05:24:14;100799.16;;;4.12;63.14
79415;BME280;68864;44.972;19.612;2023-04-06T05:26:41;100794.03;;;4.19;63.59
79415;BME280;68864;44.972;19.612;2023-04-06T05:29:08;100791.00;;;4.29;62.79
79415;BME280;68864;44.972;19.612;2023-04-06T05:31:35;100789.81;;;4.44;62.18
79415;BME280;68864;44.972;19.612;2023-04-06T05:34:02;100761.03;;;4.36;62.34
79415;BME280;68864;44.972;19.612;2023-04-06T05:36:29;100790.88;;;4.74;61.65
79415;BME280;68864;44.972;19.612;2023-04-06T05:38:57;100781.78;;;4.73;62.06
79415;BME280;68864;44.972;19.612;2023-04-06T05:41:25;100800.53;;;4.94;61.76
79415;BME280;68864;44.972;19.612;2023-04-06T05:43:52;100801.53;;;5.06;61.50
79415;BME280;68864;44.972;19.612;2023-04-06T05:46:19;100799.94;;;5.14;60.26
79415;BME280;68864;44.972;19.612;2023-04-06T05:48:46;100805.19;;;5.24;60.12
79415;BME280;68864;44.972;19.612;2023-04-06T05:51:13;100809.59;;;5.42;60.47
79415;BME280;68864;44.972;19.612;2023-04-06T05:53:39;100767.81;;;5.35;60.07
79415;BME280;68864;44.972;19.612;2023-04-06T05:56:06;100803.44;;;5.71;59.72
79415;BME280;68864;44.972;19.612;2023-04-06T05:58:35;100799.03;;;5.79;59.91
79415;BME280;68864;44.972;19.612;2023-04-06T06:01:02;100736.09;;;5.50;58.65
79415;BME280;68864;44.972;19.612;2023-04-06T06:03:30;100815.47;;;6.01;58.84
79415;BME280;68864;44.972;19.612;2023-04-06T06:06:00;100776.56;;;6.06;58.04
79415;BME280;68864;44.972;19.612;2023-04-06T06:08:27;100741.47;;;5.98;57.55
79415;BME280;68864;44.972;19.612;2023-04-06T06:10:54;100778.44;;;6.49;56.99
79415;BME280;68864;44.972;19.612;2023-04-06T06:13:21;100788.38;;;6.79;55.56
79415;BME280;68864;44.972;19.612;2023-04-06T06:15:49;100780.28;;;7.03;55.07
79415;BME280;68864;44.972;19.612;2023-04-06T06:18:16;100790.69;;;7.36;54.29
79415;BME280;68864;44.972;19.612;2023-04-06T06:20:43;100783.38;;;7.52;53.42
79415;BME280;68864;44.972;19.612;2023-04-06T06:23:10;100757.31;;;7.65;52.84
79415;BME280;68864;44.972;19.612;2023-04-06T06:25:37;100779.09;;;7.96;52.29
79415;BME280;68864;44.972;19.612;2023-04-06T06:28:04;100787.44;;;8.29;52.28
79415;BME280;68864;44.972;19.612;2023-04-06T06:30:31;100781.59;;;8.55;51.77
79415;BME280;68864;44.972;19.612;2023-04-06T06:32:59;100766.47;;;8.76;51.72
79415;BME280;68864;44.972;19.612;2023-04-06T06:35:26;100781.63;;;9.15;51.00
79415;BME280;68864;44.972;19.612;2023-04-06T06:37:52;100789.34;;;9.46;50.52
79415;BME280;68864;44.972;19.612;2023-04-06T06:40:19;100776.28;;;9.75;49.38
79415;BME280;68864;44.972;19.612;2023-04-06T06:42:49;100796.81;;;10.10;48.51
79415;BME280;68864;44.972;19.612;2023-04-06T06:45:16;100788.09;;;10.40;47.83
79415;BME280;68864;44.972;19.612;2023-04-06T06:47:43;100772.75;;;10.61;45.81
79415;BME280;68864;44.972;19.612;2023-04-06T06:50:11;100735.44;;;10.66;44.72
79415;BME280;68864;44.972;19.612;2023-04-06T06:52:39;100775.88;;;11.07;43.29
79415;BME280;68864;44.972;19.612;2023-04-06T06:55:07;100768.09;;;11.32;42.89
79415;BME280;68864;44.972;19.612;2023-04-06T06:57:34;100768.66;;;11.57;43.13
79415;BME280;68864;44.972;19.612;2023-04-06T07:00:01;100787.94;;;11.81;42.28
79415;BME280;68864;44.972;19.612;2023-04-06T07:02:28;100740.78;;;11.76;42.04
79415;BME280;68864;44.972;19.612;2023-04-06T07:04:55;100739.19;;;11.98;41.34
79415;BME280;68864;44.972;19.612;2023-04-06T07:07:23;100787.38;;;12.52;39.73
79415;BME280;68864;44.972;19.612;2023-04-06T07:09:50;100740.50;;;12.46;39.12
79415;BME280;68864;44.972;19.612;2023-04-06T07:12:17;100796.19;;;13.00;39.22
79415;BME280;68864;44.972;19.612;2023-04-06T07:14:44;100776.09;;;13.17;38.23
79415;BME280;68864;44.972;19.612;2023-04-06T07:17:10;100784.59;;;13.50;38.54
79415;BME280;68864;44.972;19.612;2023-04-06T07:19:37;100788.88;;;13.71;39.78
79415;BME280;68864;44.972;19.612;2023-04-06T07:22:04;100788.00;;;13.93;39.05
79415;BME280;68864;44.972;19.612;2023-04-06T07:24:32;100776.22;;;14.14;38.07
79415;BME280;68864;44.972;19.612;2023-04-06T07:26:59;100768.72;;;14.21;38.25
79415;BME280;68864;44.972;19.612;2023-04-06T07:29:27;100790.72;;;14.53;37.97
79415;BME280;68864;44.972;19.612;2023-04-06T07:31:54;100776.50;;;14.76;36.15
79415;BME280;68864;44.972;19.612;2023-04-06T07:34:21;100783.53;;;14.99;35.31
79415;BME280;68864;44.972;19.612;2023-04-06T07:36:48;100788.50;;;15.20;34.59
79415;BME280;68864;44.972;19.612;2023-04-06T07:39:15;100781.38;;;15.33;32.77
79415;BME280;68864;44.972;19.612;2023-04-06T07:41:43;100787.09;;;15.51;32.16
79415;BME280;68864;44.972;19.612;2023-04-06T07:44:10;100725.66;;;15.42;32.74
79415;BME280;68864;44.972;19.612;2023-04-06T07:46:37;100772.88;;;15.84;31.93
79415;BME280;68864;44.972;19.612;2023-04-06T07:49:03;100779.78;;;16.05;31.35
79415;BME280;68864;44.972;19.612;2023-04-06T07:51:30;100782.25;;;16.20;32.04
79415;BME280;68864;44.972;19.612;2023-04-06T07:53:57;100765.00;;;16.36;31.36
79415;BME280;68864;44.972;19.612;2023-04-06T07:56:24;100777.97;;;16.65;30.21
79415;BME280;68864;44.972;19.612;2023-04-06T07:58:52;100769.97;;;16.82;29.32
79415;BME280;68864;44.972;19.612;2023-04-06T08:01:21;100770.75;;;16.86;28.70
79415;BME280;68864;44.972;19.612;2023-04-06T08:03:48;100729.31;;;16.86;29.73
79415;BME280;68864;44.972;19.612;2023-04-06T08:06:15;100726.47;;;17.18;29.00
79415;BME280;68864;44.972;19.612;2023-04-06T08:08:42;100769.06;;;17.56;28.56
79415;BME280;68864;44.972;19.612;2023-04-06T08:11:09;100758.59;;;17.70;27.96
79415;BME280;68864;44.972;19.612;2023-04-06T08:13:36;100736.84;;;17.71;27.30
79415;BME280;68864;44.972;19.612;2023-04-06T08:16:05;100733.63;;;17.72;26.47
79415;BME280;68864;44.972;19.612;2023-04-06T08:18:32;100763.22;;;18.19;27.13
79415;BME280;68864;44.972;19.612;2023-04-06T08:20:58;100761.09;;;18.41;26.19
79415;BME280;68864;44.972;19.612;2023-04-06T08:23:25;100753.47;;;18.31;25.95
79415;BME280;68864;44.972;19.612;2023-04-06T08:25:52;100760.09;;;18.73;25.79
79415;BME280;68864;44.972;19.612;2023-04-06T08:28:19;100761.91;;;19.00;24.78
79415;BME280;68864;44.972;19.612;2023-04-06T08:30:46;100743.22;;;19.10;25.23
79415;BME280;68864;44.972;19.612;2023-04-06T08:33:15;100744.63;;;19.32;24.23
79415;BME280;68864;44.972;19.612;2023-04-06T08:35:42;100739.81;;;19.70;23.95
79415;BME280;68864;44.972;19.612;2023-04-06T08:38:09;100736.63;;;19.99;23.57
79415;BME280;68864;44.972;19.612;2023-04-06T08:40:36;100741.47;;;20.59;22.80
79415;BME280;68864;44.972;19.612;2023-04-06T08:43:06;100741.09;;;21.73;21.44
79415;BME280;68864;44.972;19.612;2023-04-06T08:45:35;100703.06;;;23.69;19.81
79415;BME280;68864;44.972;19.612;2023-04-06T08:48:02;100750.75;;;26.85;15.63
79415;BME280;68864;44.972;19.612;2023-04-06T08:50:32;100717.56;;;29.09;13.85
79415;BME280;68864;44.972;19.612;2023-04-06T08:53:00;100739.75;;;31.03;12.19
79415;BME280;68864;44.972;19.612;2023-04-06T08:55:27;100726.97;;;23.59;17.83
79415;BME280;68864;44.972;19.612;2023-04-06T08:57:55;100731.94;;;19.51;22.61
79415;BME280;68864;44.972;19.612;2023-04-06T09:00:22;100733.66;;;17.55;25.55
79415;BME280;68864;44.972;19.612;2023-04-06T09:02:53;100726.41;;;16.15;27.97
79415;BME280;68864;44.972;19.612;2023-04-06T09:05:23;100719.97;;;15.28;30.17
79415;BME280;68864;44.972;19.612;2023-04-06T09:07:53;100722.00;;;15.35;30.07
79415;BME280;68864;44.972;19.612;2023-04-06T09:10:20;100719.50;;;15.16;30.18
79415;BME280;68864;44.972;19.612;2023-04-06T09:12:49;100721.56;;;15.29;30.91
79415;BME280;68864;44.972;19.612;2023-04-06T09:15:19;100722.91;;;14.91;31.15
79415;BME280;68864;44.972;19.612;2023-04-06T09:17:46;100718.34;;;14.69;32.18
79415;BME280;68864;44.972;19.612;2023-04-06T09:20:13;100718.78;;;14.78;31.78
79415;BME280;68864;44.972;19.612;2023-04-06T09:22:41;100722.84;;;14.84;31.75
79415;BME280;68864;44.972;19.612;2023-04-06T09:25:18;100731.31;;;14.88;31.91
79415;BME280;68864;44.972;19.612;2023-04-06T09:27:48;100719.69;;;15.47;31.66
79415;BME280;68864;44.972;19.612;2023-04-06T09:30:24;100718.03;;;15.39;31.36
79415;BME280;68864;44.972;19.612;2023-04-06T09:32:53;100701.31;;;15.02;31.09
79415;BME280;68864;44.972;19.612;2023-04-06T09:35:21;100714.53;;;14.98;32.93
79415;BME280;68864;44.972;19.612;2023-04-06T09:37:49;100710.41;;;14.82;32.87
79415;BME280;68864;44.972;19.612;2023-04-06T09:40:18;100714.03;;;14.38;32.75
79415;BME280;68864;44.972;19.612;2023-04-06T09:42:48;100702.34;;;14.32;32.86
79415;BME280;68864;44.972;19.612;2023-04-06T09:45:15;100712.47;;;14.44;32.81
79415;BME280;68864;44.972;19.612;2023-04-06T09:47:44;100651.31;;;14.16;33.14
79415;BME280;68864;44.972;19.612;2023-04-06T09:50:12;100714.09;;;14.45;33.88
79415;BME280;68864;44.972;19.612;2023-04-06T09:52:42;100708.00;;;14.80;32.84
79415;BME280;68864;44.972;19.612;2023-04-06T09:55:20;100710.81;;;14.84;32.29
79415;BME280;68864;44.972;19.612;2023-04-06T09:57:53;100707.81;;;14.59;34.06
79415;BME280;68864;44.972;19.612;2023-04-06T10:00:22;100703.31;;;14.47;32.99
79415;BME280;68864;44.972;19.612;2023-04-06T10:03:01;100713.28;;;14.45;33.90
79415;BME280;68864;44.972;19.612;2023-04-06T10:05:37;100699.91;;;14.71;33.50
79415;BME280;68864;44.972;19.612;2023-04-06T10:08:09;100658.94;;;14.19;33.56
79415;BME280;68864;44.972;19.612;2023-04-06T10:10:38;100700.47;;;14.44;33.91
79415;BME280;68864;44.972;19.612;2023-04-06T10:13:05;100694.97;;;14.54;34.68
79415;BME280;68864;44.972;19.612;2023-04-06T10:15:33;100685.63;;;14.91;35.46
79415;BME280;68864;44.972;19.612;2023-04-06T10:18:00;100690.53;;;14.53;34.16
79415;BME280;68864;44.972;19.612;2023-04-06T10:20:34;100689.31;;;14.51;34.27
79415;BME280;68864;44.972;19.612;2023-04-06T10:23:08;100691.03;;;14.66;33.95
79415;BME280;68864;44.972;19.612;2023-04-06T10:25:37;100683.91;;;14.76;34.19
79415;BME280;68864;44.972;19.612;2023-04-06T10:28:06;100685.66;;;14.98;33.74
79415;BME280;68864;44.972;19.612;2023-04-06T10:30:33;100680.66;;;15.28;33.55
79415;BME280;68864;44.972;19.612;2023-04-06T10:33:01;100678.41;;;15.55;33.73
79415;BME280;68864;44.972;19.612;2023-04-06T10:35:36;100678.84;;;14.99;32.51
79415;BME280;68864;44.972;19.612;2023-04-06T10:38:04;100675.03;;;14.66;33.10
79415;BME280;68864;44.972;19.612;2023-04-06T10:40:31;100663.38;;;14.64;33.89
79415;BME280;68864;44.972;19.612;2023-04-06T10:43:09;100681.16;;;13.98;33.84
79415;BME280;68864;44.972;19.612;2023-04-06T10:45:36;100682.84;;;13.69;34.63
79415;BME280;68864;44.972;19.612;2023-04-06T10:48:12;100674.38;;;13.99;35.51
79415;BME280;68864;44.972;19.612;2023-04-06T10:50:39;100668.47;;;14.11;35.09
79415;BME280;68864;44.972;19.612;2023-04-06T10:53:06;100617.75;;;13.46;32.65
79415;BME280;68864;44.972;19.612;2023-04-06T10:55:34;100672.50;;;13.77;34.09
79415;BME280;68864;44.972;19.612;2023-04-06T10:58:01;100625.06;;;13.58;33.44
79415;BME280;68864;44.972;19.612;2023-04-06T11:00:29;100656.59;;;13.84;34.09
79415;BME280;68864;44.972;19.612;2023-04-06T11:02:59;100656.31;;;13.97;33.64
79415;BME280;68864;44.972;19.612;2023-04-06T11:05:26;100623.44;;;13.53;32.58
79415;BME280;68864;44.972;19.612;2023-04-06T11:07:53;100657.72;;;13.13;32.40
79415;BME280;68864;44.972;19.612;2023-04-06T11:10:21;100657.94;;;13.04;33.41
79415;BME280;68864;44.972;19.612;2023-04-06T11:12:53;100661.75;;;12.89;33.48
79415;BME280;68864;44.972;19.612;2023-04-06T11:15:20;100649.53;;;12.74;33.32
79415;BME280;68864;44.972;19.612;2023-04-06T11:17:48;100649.88;;;12.24;32.47
79415;BME280;68864;44.972;19.612;2023-04-06T11:20:15;100611.16;;;12.22;33.16
79415;BME280;68864;44.972;19.612;2023-04-06T11:22:49;100639.63;;;12.54;32.79
79415;BME280;68864;44.972;19.612;2023-04-06T11:25:17;100635.25;;;12.57;32.36
79415;BME280;68864;44.972;19.612;2023-04-06T11:27:45;100609.19;;;12.49;33.21
79415;BME280;68864;44.972;19.612;2023-04-06T11:30:13;100621.78;;;12.89;32.56
79415;BME280;68864;44.972;19.612;2023-04-06T11:32:40;100639.13;;;13.01;33.76
79415;BME280;68864;44.972;19.612;2023-04-06T11:35:10;100600.78;;;13.02;33.06
79415;BME280;68864;44.972;19.612;2023-04-06T11:37:37;100623.41;;;13.20;32.34
79415;BME280;68864;44.972;19.612;2023-04-06T11:40:08;100631.56;;;13.32;31.54
79415;BME280;68864;44.972;19.612;2023-04-06T11:42:35;100625.88;;;13.25;31.86
79415;BME280;68864;44.972;19.612;2023-04-06T11:45:02;100612.19;;;13.16;32.48
79415;BME280;68864;44.972;19.612;2023-04-06T11:47:29;100626.06;;;13.09;33.54
79415;BME280;68864;44.972;19.612;2023-04-06T11:50:05;100582.75;;;12.99;32.32
79415;BME280;68864;44.972;19.612;2023-04-06T11:52:34;100612.84;;;13.36;31.68
79415;BME280;68864;44.972;19.612;2023-04-06T11:55:11;100580.50;;;13.12;32.55
79415;BME280;68864;44.972;19.612;2023-04-06T11:57:38;100619.69;;;13.12;31.82
79415;BME280;68864;44.972;19.612;2023-04-06T12:00:06;100599.59;;;13.03;31.08
79415;BME280;68864;44.972;19.612;2023-04-06T12:02:33;100620.56;;;12.90;32.28
79415;BME280;68864;44.972;19.612;2023-04-06T12:05:00;100566.34;;;12.68;31.91
79415;BME280;68864;44.972;19.612;2023-04-06T12:07:28;100602.94;;;12.86;30.30
79415;BME280;68864;44.972;19.612;2023-04-06T12:09:56;100591.53;;;12.71;30.98
79415;BME280;68864;44.972;19.612;2023-04-06T12:12:23;100598.41;;;12.78;31.82
79415;BME280;68864;44.972;19.612;2023-04-06T12:14:50;100594.91;;;12.54;32.66
79415;BME280;68864;44.972;19.612;2023-04-06T12:17:18;100588.41;;;12.50;32.63
79415;BME280;68864;44.972;19.612;2023-04-06T12:19:44;100606.13;;;12.09;32.53
79415;BME280;68864;44.972;19.612;2023-04-06T12:22:11;100604.84;;;12.03;32.25
79415;BME280;68864;44.972;19.612;2023-04-06T12:24:37;100599.22;;;12.25;33.04
79415;BME280;68864;44.972;19.612;2023-04-06T12:27:06;100597.25;;;12.52;34.16
79415;BME280;68864;44.972;19.612;2023-04-06T12:29:34;100600.59;;;12.61;33.79
79415;BME280;68864;44.972;19.612;2023-04-06T12:32:01;100546.94;;;12.52;34.08
79415;BME280;68864;44.972;19.612;2023-04-06T12:34:27;100591.25;;;13.10;32.46
79415;BME280;68864;44.972;19.612;2023-04-06T12:36:54;100579.06;;;13.22;32.21
79415;BME280;68864;44.972;19.612;2023-04-06T12:39:22;100593.25;;;13.36;31.84
79415;BME280;68864;44.972;19.612;2023-04-06T12:41:49;100583.53;;;13.30;32.04
79415;BME280;68864;44.972;19.612;2023-04-06T12:44:17;100589.63;;;13.35;31.82
79415;BME280;68864;44.972;19.612;2023-04-06T12:46:44;100594.41;;;13.35;31.37
79415;BME280;68864;44.972;19.612;2023-04-06T12:49:12;100591.94;;;13.30;30.22